Time;durP1;ratioP1;P1;durP2;ratioP2;P2;SDS_P1;SDS_P2;PMS_P1;PMS_P2;Temp;Humidity;BMP_temperature;BMP_pressure;BME280_temperature;BME280_humidity;BME280_pressure;Samples;Min_cycle;Max_cycle;Signal;HPM_P1;HPM_P2
2023/09/23 00:00:08;;;;;;;10.27;7.30;;;14.20;99.90;;;14.58;73.59;99691.50;4902846;29;20502;-90
2023/09/23 00:02:42;;;;;;;13.00;8.02;;;14.20;99.90;;;14.58;73.63;99691.50;4920510;29;20111;-90
2023/09/23 00:05:12;;;;;;;10.25;7.57;;;14.10;99.90;;;14.57;73.47;99695.25;4919704;29;20048;-90
2023/09/23 00:07:40;;;;;;;12.05;8.55;;;14.10;99.90;;;14.60;73.32;99696.63;4902537;29;20527;-90
2023/09/23 00:10:12;;;;;;;13.13;8.15;;;14.10;99.90;;;14.61;73.31;99706.28;4902527;29;20048;-90
2023/09/23 00:12:41;;;;;;;10.77;8.18;;;14.10;99.90;;;14.58;73.76;99717.53;4902674;29;20071;-90
2023/09/23 00:15:11;;;;;;;11.18;8.30;;;14.10;99.90;;;14.49;74.06;99709.13;4918481;29;20099;-91
2023/09/23 00:17:45;;;;;;;13.32;8.15;;;14.10;99.90;;;14.52;74.19;99705.13;4886504;29;20086;-90
2023/09/23 00:20:16;;;;;;;13.35;8.77;;;14.10;99.90;;;14.55;74.06;99710.00;4902592;29;20088;-90
2023/09/23 00:22:46;;;;;;;12.13;9.45;;;14.10;99.90;;;14.55;74.18;99708.13;4902360;29;20052;-91
2023/09/23 00:25:16;;;;;;;13.45;9.02;;;14.10;99.90;;;14.57;74.07;99714.03;4919646;29;20115;-90
2023/09/23 00:27:44;;;;;;;12.97;9.10;;;14.10;99.90;;;14.56;73.91;99722.34;4886297;29;20501;-90
2023/09/23 00:30:13;;;;;;;11.18;8.38;;;14.10;99.90;;;14.58;73.96;99721.00;4917365;29;20515;-90
2023/09/23 00:32:43;;;;;;;11.90;7.68;;;14.10;99.90;;;14.60;74.00;99729.63;4901969;29;20044;-91
2023/09/23 00:35:12;;;;;;;11.25;8.25;;;14.20;99.90;;;14.61;73.79;99733.13;4886009;29;20135;-90
2023/09/23 00:37:40;;;;;;;12.18;7.57;;;14.20;99.90;;;14.58;73.91;99731.75;4901609;29;20079;-90
2023/09/23 00:40:17;;;;;;;12.18;7.00;;;14.10;99.90;;;14.58;74.04;99736.31;4901541;29;20143;-90
2023/09/23 00:42:47;;;;;;;9.23;6.40;;;14.10;99.90;;;14.59;73.89;99743.28;4918699;29;20040;-90
2023/09/23 00:45:17;;;;;;;10.45;6.85;;;14.20;99.90;;;14.55;73.46;99744.88;4901329;29;20048;-90
2023/09/23 00:47:47;;;;;;;10.25;6.60;;;14.10;99.90;;;14.48;73.86;99742.38;4917031;29;20090;-90
2023/09/23 00:50:19;;;;;;;9.77;6.57;;;14.10;99.90;;;14.44;73.72;99751.97;4901263;29;20048;-90
2023/09/23 00:52:51;;;;;;;10.82;6.20;;;14.00;99.90;;;14.42;73.61;99762.97;4919157;29;20553;-91
2023/09/23 00:55:19;;;;;;;10.30;5.75;;;14.00;99.90;;;14.40;73.33;99761.63;4902421;29;20055;-91
2023/09/23 00:57:53;;;;;;;9.05;5.90;;;14.00;99.90;;;14.36;73.53;99772.03;4901321;29;20040;-91
2023/09/23 01:00:25;;;;;;;10.82;5.65;;;13.90;99.90;;;14.35;73.38;99778.47;4901176;29;20076;-91
2023/09/23 01:02:55;;;;;;;7.13;5.10;;;13.90;99.90;;;14.34;73.46;99779.50;4918280;29;20075;-91
2023/09/23 01:05:27;;;;;;;8.83;5.07;;;13.90;99.90;;;14.34;73.28;99782.19;4900778;29;20171;-91
2023/09/23 01:07:56;;;;;;;7.82;4.88;;;13.90;99.90;;;14.31;73.34;99785.41;4901956;29;20055;-91
2023/09/23 01:10:25;;;;;;;6.95;4.35;;;13.90;99.90;;;14.34;73.18;99787.56;4901285;29;20056;-91
2023/09/23 01:12:53;;;;;;;7.05;4.40;;;13.90;99.90;;;14.34;72.67;99779.50;4886081;29;20044;-91
2023/09/23 01:15:22;;;;;;;5.72;3.80;;;13.90;99.90;;;14.32;72.80;99781.66;4918732;29;20044;-91
2023/09/23 01:17:53;;;;;;;6.32;3.70;;;13.90;99.90;;;14.32;72.74;99781.66;4900857;29;20505;-90
2023/09/23 01:20:22;;;;;;;6.32;3.55;;;13.90;99.90;;;14.31;72.61;99790.75;4886879;29;20052;-90
2023/09/23 01:22:54;;;;;;;5.28;3.42;;;13.90;99.90;;;14.33;72.41;99795.88;4900728;29;20133;-91
2023/09/23 01:25:24;;;;;;;5.25;3.65;;;13.90;99.90;;;14.31;72.57;99790.75;4917478;29;20059;-90
2023/09/23 01:27:53;;;;;;;5.22;3.28;;;13.80;99.90;;;14.30;72.31;99799.03;4900709;29;20052;-90
2023/09/23 01:30:24;;;;;;;7.05;3.20;;;13.80;99.90;;;14.28;72.26;99795.81;4910361;29;20099;-91
2023/09/23 01:32:53;;;;;;;6.63;3.35;;;13.80;99.90;;;14.25;72.36;99802.50;4916303;29;20458;-90
2023/09/23 01:35:21;;;;;;;5.28;3.10;;;13.80;99.90;;;14.24;72.42;99800.88;4900367;29;20498;-91
2023/09/23 01:37:51;;;;;;;5.47;3.20;;;13.70;99.90;;;14.18;72.64;99802.69;4917552;29;20051;-90
2023/09/23 01:40:19;;;;;;;5.38;3.00;;;13.70;99.90;;;14.19;72.44;99811.53;4900548;29;20048;-90
2023/09/23 01:42:51;;;;;;;4.47;2.47;;;13.70;99.90;;;14.15;73.04;99807.72;4885530;29;20044;-90
2023/09/23 01:45:20;;;;;;;4.80;2.85;;;13.60;99.90;;;14.16;73.09;99812.06;4917229;29;20064;-90
2023/09/23 01:47:49;;;;;;;6.60;2.92;;;13.60;99.90;;;14.15;72.68;99813.94;4915901;29;20048;-91
2023/09/23 01:50:18;;;;;;;5.15;2.85;;;13.70;99.90;;;14.16;72.60;99815.53;4916074;29;20122;-91
2023/09/23 01:52:46;;;;;;;5.20;3.25;;;13.70;99.90;;;14.14;72.30;99806.13;4885209;29;20142;-90
2023/09/23 01:55:17;;;;;;;6.20;3.05;;;13.70;99.90;;;14.10;72.63;99805.00;4884805;29;20514;-90
2023/09/23 01:57:49;;;;;;;5.25;3.00;;;13.70;99.90;;;14.09;72.74;99808.75;4916897;29;20080;-90
2023/09/23 02:00:21;;;;;;;6.68;3.58;;;13.60;99.90;;;14.05;72.62;99804.94;4916024;29;20044;-90
2023/09/23 02:02:53;;;;;;;5.93;3.40;;;13.60;99.90;;;14.05;72.86;99815.66;4901016;29;20071;-91
2023/09/23 02:05:21;;;;;;;5.65;3.42;;;13.60;99.90;;;14.02;72.78;99821.53;4915936;29;20048;-91
2023/09/23 02:07:50;;;;;;;5.63;3.40;;;13.60;99.90;;;14.00;73.12;99816.41;4900139;29;20052;-90
2023/09/23 02:10:23;;;;;;;5.22;3.30;;;13.60;99.90;;;13.85;73.54;99822.38;4892477;29;20083;-91
2023/09/23 02:12:55;;;;;;;7.32;3.55;;;13.60;99.90;;;13.92;73.66;99835.63;4915617;29;20139;-91
2023/09/23 02:15:23;;;;;;;6.70;3.40;;;13.60;99.90;;;13.94;73.79;99844.22;4916429;29;20048;-90
2023/09/23 02:17:53;;;;;;;6.45;3.60;;;13.50;99.90;;;13.91;73.80;99850.91;4901868;29;20044;-91
2023/09/23 02:20:21;;;;;;;6.15;4.10;;;13.50;99.90;;;13.95;73.55;99850.38;4916335;29;20127;-91
2023/09/23 02:22:54;;;;;;;6.22;4.03;;;13.60;99.90;;;13.91;73.94;99850.91;4917514;29;20036;-91
2023/09/23 02:25:25;;;;;;;7.18;4.15;;;13.50;99.90;;;13.81;74.37;99852.63;4900345;29;20056;-90
2023/09/23 02:27:55;;;;;;;6.13;4.13;;;13.50;99.90;;;13.89;74.24;99861.06;4915966;29;20119;-91
2023/09/23 02:30:25;;;;;;;8.43;4.22;;;13.50;99.90;;;13.93;73.68;99868.59;4900012;29;20048;-91
2023/09/23 02:32:53;;;;;;;6.45;4.47;;;13.60;99.90;;;13.83;74.32;99867.41;4884632;29;20048;-91
2023/09/23 02:35:22;;;;;;;8.45;5.03;;;13.50;99.90;;;13.78;74.30;99872.69;4900194;29;20052;-91
2023/09/23 02:37:50;;;;;;;7.43;4.75;;;13.40;99.90;;;13.76;74.63;99865.94;4901230;29;20056;-90
2023/09/23 02:40:20;;;;;;;8.48;4.78;;;13.40;99.90;;;13.84;74.57;99868.22;4880592;29;20134;-91
2023/09/23 02:42:53;;;;;;;7.13;5.10;;;13.50;99.90;;;13.83;74.71;99869.28;4904152;29;20055;-91
2023/09/23 02:45:24;;;;;;;8.35;4.32;;;13.50;99.90;;;13.80;74.99;99869.75;4888330;29;20494;-91
2023/09/23 02:47:52;;;;;;;7.57;4.50;;;13.40;99.90;;;13.82;74.89;99873.03;4904822;29;20517;-90
2023/09/23 02:50:20;;;;;;;8.65;4.45;;;13.40;99.90;;;13.77;74.84;99871.09;4921071;29;20095;-90
2023/09/23 02:52:49;;;;;;;10.32;4.70;;;13.40;99.90;;;13.84;74.58;99870.91;4903477;29;20152;-90
2023/09/23 02:55:19;;;;;;;8.38;3.85;;;13.50;99.90;;;13.85;74.57;99877.88;4903141;29;20046;-91
2023/09/23 02:57:49;;;;;;;9.40;4.22;;;13.50;99.90;;;13.81;74.48;99882.94;4903324;29;20072;-90
2023/09/23 03:00:19;;;;;;;6.47;4.25;;;13.40;99.90;;;13.84;74.51;99879.75;4903439;29;20055;-91
2023/09/23 03:02:52;;;;;;;7.90;4.45;;;13.40;99.90;;;13.88;74.38;99888.13;4889225;29;20471;-91
2023/09/23 03:05:26;;;;;;;6.78;4.18;;;13.50;99.90;;;13.85;74.36;99884.03;4922193;29;20048;-90
2023/09/23 03:07:58;;;;;;;9.50;4.28;;;13.40;99.90;;;13.86;74.25;99891.06;4904825;29;20080;-90
2023/09/23 03:10:39;;;;;;;8.30;4.38;;;13.40;99.90;;;13.80;74.41;99883.97;4922128;29;20044;-90
2023/09/23 03:13:11;;;;;;;8.43;4.15;;;13.40;99.90;;;13.77;74.45;99891.72;4921640;29;20417;-90
2023/09/23 03:15:44;;;;;;;7.20;3.85;;;13.40;99.90;;;13.81;74.43;99893.66;4905425;29;20052;-90
2023/09/23 03:18:14;;;;;;;9.95;3.60;;;13.40;99.90;;;13.75;74.60;99894.63;4904206;29;20532;-90
2023/09/23 03:20:43;;;;;;;13.18;4.20;;;13.40;99.90;;;13.76;74.55;99892.75;4919133;29;20063;-91
2023/09/23 03:23:12;;;;;;;7.32;3.50;;;13.40;99.90;;;13.78;74.47;99894.16;4902714;29;20071;-90
2023/09/23 03:25:46;;;;;;;10.85;3.33;;;13.40;99.90;;;13.78;74.58;99896.81;4918398;29;20056;-91
2023/09/23 03:28:17;;;;;;;7.63;3.22;;;13.40;99.90;;;13.79;74.22;99898.44;4918477;29;20052;-90
2023/09/23 03:30:49;;;;;;;7.38;3.50;;;13.40;99.90;;;13.74;74.47;99902.91;4902738;29;20052;-90
2023/09/23 03:33:20;;;;;;;6.00;3.08;;;13.40;99.90;;;13.76;74.53;99907.00;4911257;29;20143;-90
2023/09/23 03:35:49;;;;;;;7.93;3.22;;;13.40;99.90;;;13.76;74.27;99901.63;4918184;29;20506;-91
2023/09/23 03:38:16;;;;;;;9.45;3.40;;;13.40;99.90;;;13.71;74.24;99898.84;4902500;29;20095;-91
2023/09/23 03:40:54;;;;;;;8.90;3.17;;;13.30;99.90;;;13.65;74.83;99903.31;4919350;29;20047;-90
2023/09/23 03:43:24;;;;;;;8.90;3.00;;;13.30;99.90;;;13.72;74.59;99903.16;4902707;29;20044;-90
2023/09/23 03:45:52;;;;;;;9.23;3.28;;;13.30;99.90;;;13.76;74.30;99901.63;4918662;29;20490;-90
2023/09/23 03:48:20;;;;;;;7.28;3.00;;;13.40;99.90;;;13.79;74.28;99903.78;4901816;29;20131;-90
2023/09/23 03:50:51;;;;;;;6.60;2.88;;;13.40;99.90;;;13.76;74.09;99896.28;4898633;29;20412;-91
2023/09/23 03:53:21;;;;;;;8.50;3.33;;;13.40;99.90;;;13.75;73.99;99902.66;4867261;29;20048;-90
2023/09/23 03:55:50;;;;;;;5.50;2.83;;;13.30;99.90;;;13.72;74.38;99900.50;4898707;29;20431;-90
2023/09/23 03:58:19;;;;;;;7.43;3.42;;;13.30;99.90;;;13.75;74.10;99908.03;4883044;29;20048;-90
2023/09/23 04:00:49;;;;;;;6.78;2.75;;;13.30;99.90;;;13.78;74.10;99910.22;4898730;29;20040;-90
2023/09/23 04:03:17;;;;;;;6.68;2.85;;;13.30;99.90;;;13.76;73.98;99909.66;4867347;29;20055;-91
2023/09/23 04:05:45;;;;;;;8.75;3.20;;;13.30;99.90;;;13.74;73.88;99908.28;4882991;29;20572;-91
2023/09/23 04:08:12;;;;;;;11.30;2.92;;;13.30;99.90;;;13.70;73.90;99913.31;4882345;29;20192;-90
2023/09/23 04:10:43;;;;;;;9.15;2.90;;;13.30;99.90;;;13.68;74.12;99920.78;4867224;29;20068;-91
2023/09/23 04:13:14;;;;;;;8.43;2.90;;;13.30;99.90;;;13.69;74.44;99922.41;4894898;29;20077;-90
2023/09/23 04:15:43;;;;;;;5.35;2.53;;;13.20;99.90;;;13.73;74.31;99928.09;4867762;29;20076;-91
2023/09/23 04:18:13;;;;;;;10.02;2.75;;;13.30;99.90;;;13.67;74.42;99926.41;4882368;29;20040;-90
2023/09/23 04:20:43;;;;;;;7.32;2.70;;;13.30;99.90;;;13.67;74.33;99929.91;4852131;29;20427;-91
2023/09/23 04:23:11;;;;;;;8.30;2.90;;;13.30;99.90;;;13.70;74.30;99934.75;4901965;29;20075;-90
2023/09/23 04:25:38;;;;;;;5.60;2.90;;;13.30;99.90;;;13.72;74.09;99927.28;4902005;29;20078;-90
2023/09/23 04:28:06;;;;;;;8.15;2.55;;;13.30;99.90;;;13.72;74.11;99932.66;4902115;29;20501;-90
2023/09/23 04:30:34;;;;;;;7.25;2.30;;;13.30;99.90;;;13.65;74.02;99927.44;4920519;29;20056;-91
2023/09/23 04:33:02;;;;;;;6.95;2.25;;;13.20;99.90;;;13.61;74.71;99936.22;4919648;29;20048;-91
2023/09/23 04:35:31;;;;;;;7.30;2.50;;;13.20;99.90;;;13.62;74.51;99938.66;4901456;29;20075;-90
2023/09/23 04:37:59;;;;;;;6.55;2.88;;;13.20;99.90;;;13.63;74.43;99939.47;4901417;29;20075;-90
2023/09/23 04:40:26;;;;;;;9.25;2.60;;;13.20;99.90;;;13.63;74.61;99940.28;4870372;29;20151;-91
2023/09/23 04:42:56;;;;;;;5.05;1.77;;;13.20;99.90;;;13.68;74.48;99947.59;4918138;29;20095;-91
2023/09/23 04:45:24;;;;;;;5.07;2.05;;;13.30;99.90;;;13.69;74.42;99953.75;4902753;29;20485;-90
2023/09/23 04:47:52;;;;;;;6.88;2.25;;;13.30;99.90;;;13.69;74.61;99946.53;4901100;29;20123;-90
2023/09/23 04:50:23;;;;;;;7.55;2.30;;;13.30;99.90;;;13.70;74.71;99944.66;4901659;29;20127;-90
2023/09/23 04:52:52;;;;;;;8.88;1.90;;;13.30;99.90;;;13.67;75.08;99956.69;4917785;29;20126;-91
2023/09/23 04:55:21;;;;;;;7.40;2.45;;;13.30;99.90;;;13.71;74.85;99965.03;4893951;29;20068;-90
2023/09/23 04:57:49;;;;;;;7.18;2.00;;;13.30;99.90;;;13.71;74.84;99963.16;4901856;29;20048;-89
2023/09/23 05:00:17;;;;;;;6.03;2.08;;;13.30;99.90;;;13.67;75.13;99967.41;4900244;29;20100;-89
2023/09/23 05:02:48;;;;;;;6.18;1.92;;;13.30;99.90;;;13.68;75.24;99965.53;4901741;29;20115;-93
2023/09/23 05:05:15;;;;;;;10.27;2.10;;;13.30;99.90;;;13.68;75.27;99966.34;4908240;29;20557;-94
2023/09/23 05:07:43;;;;;;;7.43;2.40;;;13.30;99.90;;;13.70;75.16;99977.63;4906720;29;20055;-93
2023/09/23 05:10:13;;;;;;;7.60;2.40;;;13.30;99.90;;;13.70;74.86;99979.50;4924542;29;20104;-94
2023/09/23 05:12:44;;;;;;;10.87;2.40;;;13.30;99.90;;;13.64;75.22;99989.31;4880378;29;20045;-94
2023/09/23 05:15:14;;;;;;;10.07;2.40;;;13.20;99.90;;;13.58;75.29;99991.13;4895848;29;20142;-93
2023/09/23 05:17:43;;;;;;;10.77;2.67;;;13.20;99.90;;;13.52;75.29;99999.31;4931873;29;20056;-93
2023/09/23 05:20:25;;;;;;;6.90;2.13;;;13.20;99.90;;;13.56;75.70;99997.75;4936979;29;20044;-93
2023/09/23 05:22:53;;;;;;;6.63;2.00;;;13.20;99.90;;;13.60;75.55;100010.44;4920510;29;20056;-92
2023/09/23 05:25:24;;;;;;;6.70;2.10;;;13.20;99.90;;;13.63;75.67;100015.31;4918609;29;20103;-92
2023/09/23 05:27:53;;;;;;;6.45;2.25;;;13.30;99.90;;;13.62;75.56;100023.59;4902078;29;20048;-91
2023/09/23 05:30:21;;;;;;;6.07;2.40;;;13.30;99.90;;;13.65;75.42;100023.09;4910211;29;20052;-91
2023/09/23 05:32:50;;;;;;;8.73;2.60;;;13.30;99.90;;;13.65;75.35;100023.91;4917054;29;20042;-91
2023/09/23 05:35:19;;;;;;;5.75;2.13;;;13.30;99.90;;;13.62;75.36;100028.97;4918688;29;20048;-91
2023/09/23 05:37:47;;;;;;;8.48;2.28;;;13.30;99.90;;;13.61;75.44;100038.03;4918944;29;20048;-91
2023/09/23 05:40:23;;;;;;;8.05;1.95;;;13.30;99.90;;;13.64;75.48;100045.59;4902088;29;20058;-91
2023/09/23 05:42:53;;;;;;;8.13;1.90;;;13.30;99.90;;;13.69;75.43;100048.38;4919742;29;20454;-89
2023/09/23 05:45:24;;;;;;;7.22;1.92;;;13.30;99.90;;;13.74;75.77;100061.84;4917687;29;20107;-89
2023/09/23 05:47:52;;;;;;;7.35;2.13;;;13.40;99.90;;;13.75;75.56;100060.78;4900365;29;20493;-89
2023/09/23 05:50:20;;;;;;;5.03;2.30;;;13.40;99.90;;;13.75;75.35;100065.34;4892723;29;20502;-89
2023/09/23 05:52:52;;;;;;;5.10;1.80;;;13.40;99.90;;;13.78;75.72;100065.69;4916546;29;20470;-89
2023/09/23 05:55:19;;;;;;;6.30;2.13;;;13.40;99.90;;;13.76;75.75;100081.19;4916956;29;20088;-89
2023/09/23 05:57:48;;;;;;;7.05;2.45;;;13.40;99.90;;;13.64;76.06;100080.44;4884837;29;20044;-89
2023/09/23 06:00:20;;;;;;;7.75;2.42;;;13.40;99.90;;;13.63;75.97;100082.31;4900652;29;20054;-89
2023/09/23 06:02:48;;;;;;;6.63;2.40;;;13.40;99.90;;;13.64;76.42;100083.13;4900617;29;20569;-89
2023/09/23 06:05:16;;;;;;;8.45;2.58;;;13.40;99.90;;;13.61;76.38;100088.94;4885069;29;20048;-89
2023/09/23 06:07:46;;;;;;;6.90;2.40;;;13.30;99.90;;;13.62;76.00;100090.59;4900170;29;20055;-90
2023/09/23 06:10:15;;;;;;;9.48;2.47;;;13.40;99.90;;;13.54;76.61;100102.50;4900827;29;20115;-88
2023/09/23 06:12:44;;;;;;;6.57;2.80;;;13.30;99.90;;;13.60;76.67;100106.88;4903926;29;20115;-87
2023/09/23 06:15:16;;;;;;;10.50;2.97;;;13.40;99.90;;;13.59;76.64;100107.13;4919973;29;20052;-87
2023/09/23 06:17:44;;;;;;;7.88;2.70;;;13.40;99.90;;;13.67;76.71;100116.69;4903862;29;20127;-87
2023/09/23 06:20:12;;;;;;;9.95;2.70;;;13.40;99.90;;;13.72;76.75;100114.91;4919371;29;20454;-86
2023/09/23 06:22:40;;;;;;;8.18;2.90;;;13.40;99.90;;;13.76;76.55;100118.72;4919406;29;20052;-87
2023/09/23 06:25:10;;;;;;;8.60;2.85;;;13.50;99.90;;;13.79;76.53;100128.94;4904092;29;20522;-87
2023/09/23 06:27:38;;;;;;;7.07;2.67;;;13.50;99.90;;;13.81;76.45;100132.22;4905038;29;20080;-86
2023/09/23 06:30:07;;;;;;;4.53;2.10;;;13.50;99.90;;;13.81;76.24;100134.91;4903959;29;20580;-87
2023/09/23 06:32:36;;;;;;;6.38;2.45;;;13.60;99.90;;;13.83;76.57;100137.34;4903469;29;20127;-87
2023/09/23 06:35:04;;;;;;;10.68;2.40;;;13.60;99.90;;;13.82;76.29;100136.53;4904532;29;20051;-87
2023/09/23 06:37:32;;;;;;;6.38;2.25;;;13.60;99.90;;;13.80;76.23;100138.59;4903865;29;20469;-87
2023/09/23 06:40:00;;;;;;;6.15;2.40;;;13.50;99.90;;;13.87;76.21;100147.34;4920507;29;20063;-87
2023/09/23 06:42:27;;;;;;;7.05;2.42;;;13.60;99.90;;;13.88;76.36;100148.94;4903379;29;20145;-87
2023/09/23 06:44:55;;;;;;;9.88;2.60;;;13.60;99.90;;;13.91;76.12;100158.41;4919015;29;20040;-87
2023/09/23 06:47:23;;;;;;;8.32;2.38;;;13.60;99.90;;;13.91;76.36;100164.56;4920384;29;20092;-86
2023/09/23 06:49:52;;;;;;;7.82;2.40;;;13.60;99.90;;;13.82;76.03;100171.38;4903381;29;20044;-87
2023/09/23 06:52:19;;;;;;;8.93;2.90;;;13.60;99.90;;;13.83;77.11;100175.66;4918914;29;20051;-87
2023/09/23 06:54:47;;;;;;;8.45;2.58;;;13.60;99.90;;;13.86;77.10;100179.75;4920273;29;20152;-88
2023/09/23 06:57:17;;;;;;;8.43;2.58;;;13.70;99.90;;;13.82;76.62;100194.69;4903830;29;20411;-87
2023/09/23 06:59:45;;;;;;;4.07;2.10;;;13.60;99.90;;;13.82;77.05;100189.31;4903804;29;20052;-87
2023/09/23 07:02:17;;;;;;;6.97;2.55;;;13.60;99.90;;;13.82;77.21;100197.38;4903765;29;20147;-88
2023/09/23 07:04:44;;;;;;;7.05;2.40;;;13.60;99.90;;;13.88;77.06;100201.75;4903942;29;20518;-88
2023/09/23 07:07:13;;;;;;;6.90;2.25;;;13.60;99.90;;;13.91;77.09;100207.47;4903218;29;20040;-87
2023/09/23 07:09:41;;;;;;;7.07;2.63;;;13.70;99.90;;;13.76;76.84;100207.19;4919966;29;20091;-87
2023/09/23 07:12:12;;;;;;;8.35;2.60;;;13.60;99.90;;;13.79;77.02;100211.22;4887331;29;20395;-87
2023/09/23 07:14:43;;;;;;;8.63;2.05;;;13.60;99.90;;;13.80;77.25;100208.31;4887410;29;20229;-86
2023/09/23 07:17:11;;;;;;;6.90;2.50;;;13.60;99.90;;;13.82;77.46;100214.25;4917642;29;20107;-87
2023/09/23 07:19:39;;;;;;;11.02;2.70;;;13.60;99.90;;;13.88;77.16;100221.34;4902578;29;20136;-86
2023/09/23 07:22:07;;;;;;;6.55;2.60;;;13.70;99.90;;;13.79;76.99;100214.72;4902855;29;20052;-86
2023/09/23 07:24:38;;;;;;;8.93;2.53;;;13.70;99.90;;;13.82;77.05;100224.97;4919221;29;20123;-86
2023/09/23 07:27:06;;;;;;;9.95;2.65;;;13.70;99.90;;;13.91;77.42;100220.88;4919007;29;20059;-86
2023/09/23 07:29:33;;;;;;;8.73;2.60;;;13.70;99.90;;;13.93;77.18;100225.97;4902636;29;20044;-86
2023/09/23 07:32:04;;;;;;;7.20;2.53;;;13.80;99.90;;;13.84;76.70;100228.22;4919835;29;20079;-86
2023/09/23 07:34:34;;;;;;;6.70;2.50;;;13.70;99.90;;;13.81;77.03;100231.41;4888013;29;20040;-86
2023/09/23 07:37:06;;;;;;;7.55;2.13;;;13.70;99.90;;;13.87;77.27;100237.66;4902935;29;20044;-88
2023/09/23 07:39:34;;;;;;;10.10;2.63;;;13.70;99.90;;;13.82;77.34;100234.88;4920727;29;20068;-87
2023/09/23 07:42:02;;;;;;;8.45;2.90;;;13.70;99.90;;;13.86;77.29;100250.25;4920756;29;20131;-86
2023/09/23 07:44:30;;;;;;;8.02;2.53;;;13.70;99.90;;;13.91;77.65;100249.53;4902676;29;20056;-86
2023/09/23 07:46:57;;;;;;;8.18;2.33;;;13.80;99.90;;;13.91;77.45;100261.09;4918065;29;20134;-86
2023/09/23 07:49:26;;;;;;;7.78;2.80;;;13.80;99.90;;;13.94;77.16;100264.31;4902446;29;20044;-88
2023/09/23 07:51:56;;;;;;;6.07;2.35;;;13.80;99.90;;;14.00;77.23;100261.50;4902689;29;20056;-88
2023/09/23 07:54:23;;;;;;;9.40;2.35;;;13.80;99.90;;;14.05;77.52;100274.19;4919108;29;20561;-88
2023/09/23 07:56:51;;;;;;;7.15;2.20;;;13.90;99.90;;;14.14;78.12;100278.13;4903074;29;20044;-88
2023/09/23 07:59:20;;;;;;;8.32;2.15;;;14.00;99.90;;;14.21;78.21;100278.00;4902503;29;20569;-89
2023/09/23 08:04:28;;;;;;;9.38;2.70;;;14.20;99.90;;;14.32;79.08;100285.97;4880472;29;20056;-85
2023/09/23 08:06:55;;;;;;;11.15;3.03;;;14.30;99.90;;;14.32;78.89;100295.91;4881998;29;20097;-85
2023/09/23 08:09:23;;;;;;;9.18;2.53;;;14.40;99.90;;;14.40;78.91;100301.72;4865167;29;20056;-85
2023/09/23 08:11:50;;;;;;;5.93;2.20;;;14.40;99.90;;;14.47;79.11;100298.06;4881662;29;20041;-86
2023/09/23 08:14:22;;;;;;;10.27;2.60;;;14.50;99.90;;;14.49;78.11;100302.13;4882214;29;20492;-85
2023/09/23 08:16:51;;;;;;;8.35;3.00;;;14.40;99.90;;;14.53;78.49;100305.97;4883812;29;20069;-85
2023/09/23 08:19:19;;;;;;;7.40;2.42;;;14.50;99.90;;;14.50;77.24;100300.28;4849834;29;20080;-85
2023/09/23 08:25:30;;;;;;;8.10;2.60;;;14.40;99.90;;;14.53;78.62;100311.34;5543908;23;20615;-84
2023/09/23 08:28:01;;;;;;;7.88;2.83;;;14.50;99.90;;;14.60;77.94;100313.91;4917458;29;20091;-84
2023/09/23 08:30:32;;;;;;;11.25;3.42;;;14.50;99.90;;;14.63;77.83;100308.03;4918742;29;20051;-84
2023/09/23 08:35:51;;;;;;;6.93;2.58;;;14.60;99.90;;;14.71;78.50;100318.38;4896902;29;20059;-85
2023/09/23 08:38:18;;;;;;;8.18;2.33;;;14.40;99.90;;;14.73;77.25;100323.50;4868026;29;20056;-84
2023/09/23 08:40:47;;;;;;;7.78;2.53;;;14.70;99.90;;;14.57;76.64;100322.41;4883019;29;20488;-84
2023/09/23 08:43:21;;;;;;;7.88;2.53;;;14.60;99.90;;;14.60;77.33;100321.94;4882343;29;20416;-84
2023/09/23 08:45:54;;;;;;;8.05;2.20;;;14.70;99.90;;;14.71;78.33;100326.44;4899371;29;20527;-84
2023/09/23 08:48:22;;;;;;;;;;;14.80;99.90;;;14.78;78.05;100331.63;4901135;29;20097;-84
2023/09/23 08:50:53;;;;;;;7.03;2.70;;;14.80;99.90;;;14.83;78.30;100331.72;4901262;29;19951;-85
2023/09/23 08:53:23;;;;;;;5.82;2.10;;;14.90;99.90;;;14.86;78.38;100334.75;4901501;29;20100;-85
2023/09/23 08:55:55;;;;;;;7.38;2.50;;;14.90;99.90;;;14.90;77.81;100340.44;4899529;29;20048;-85
2023/09/23 08:58:24;;;;;;;10.30;2.83;;;14.90;99.90;;;14.82;76.25;100349.72;4899618;29;20040;-85
2023/09/23 09:00:54;;;;;;;7.82;2.88;;;14.90;99.90;;;14.74;76.41;100344.75;4899054;29;20492;-85
2023/09/23 09:03:33;;;;;;;9.00;2.63;;;14.80;99.90;;;14.80;76.88;100345.66;4882104;29;20063;-85
2023/09/23 09:06:03;;;;;;;9.43;2.67;;;14.80;99.90;;;14.83;76.22;100345.97;4852812;29;20511;-85
2023/09/23 09:08:38;;;;;;;12.13;2.72;;;14.90;99.90;;;14.87;76.99;100346.28;4898544;29;20059;-85
2023/09/23 09:11:05;;;;;;;9.35;2.30;;;14.90;99.90;;;14.88;76.40;100354.13;4882049;29;20055;-85
2023/09/23 09:13:40;;;;;;;9.48;2.47;;;14.90;99.90;;;14.94;77.25;100353.16;4899002;29;20048;-89
2023/09/23 09:16:09;;;;;;;6.00;2.53;;;15.00;99.90;;;14.98;77.80;100355.34;4852453;29;20056;-84
2023/09/23 09:18:39;;;;;;;6.75;2.63;;;15.00;99.90;;;15.01;77.43;100357.53;4901266;29;20500;-85
2023/09/23 09:21:08;;;;;;;9.10;2.40;;;15.10;99.90;;;14.97;76.63;100356.41;4886091;29;20076;-85
2023/09/23 09:23:38;;;;;;;9.13;2.88;;;15.10;99.90;;;14.99;76.50;100357.81;4900712;29;20140;-85
2023/09/23 09:26:09;;;;;;;8.95;2.35;;;15.00;99.90;;;15.07;77.29;100361.94;4900388;29;20068;-85
2023/09/23 09:28:37;;;;;;;6.53;2.63;;;15.10;99.90;;;15.12;77.19;100373.56;4899254;29;20049;-85
2023/09/23 09:31:11;;;;;;;12.52;3.05;;;15.10;99.90;;;15.17;77.42;100375.53;4899752;29;20119;-85
2023/09/23 10:00:42;;;;;;;6.65;2.67;;;15.40;99.90;;;15.36;73.81;100400.28;5535891;23;20586;-84
2023/09/23 10:03:13;;;;;;;5.63;2.10;;;15.50;99.90;;;15.36;73.81;100403.78;4915825;29;20052;-84
2023/09/23 10:05:51;;;;;;;5.85;2.22;;;15.50;99.90;;;15.36;74.02;100409.16;4917081;29;20139;-85
2023/09/23 10:08:24;;;;;;;6.07;2.15;;;15.50;99.90;;;15.34;74.01;100403.22;4897109;29;20060;-84
2023/09/23 10:11:02;;;;;;;7.22;2.17;;;15.50;99.90;;;15.36;74.43;100411.84;4896995;29;20432;-84
2023/09/23 10:16:37;;;;;;;5.70;2.28;;;15.60;99.90;;;15.53;73.92;100416.44;4972794;23;20112;-84
2023/09/23 10:19:15;;;;;;;5.55;2.15;;;15.70;99.90;;;15.52;74.48;100406.72;4898115;29;20056;-86
2023/09/23 10:21:47;;;;;;;7.63;2.40;;;15.70;99.90;;;15.55;74.28;100420.50;4896944;29;20052;-87
2023/09/23 10:24:23;;;;;;;5.00;1.98;;;15.70;99.90;;;15.54;73.45;100416.19;4872604;29;20049;-87
2023/09/23 10:26:53;;;;;;;9.57;2.63;;;15.70;99.90;;;15.53;73.22;100413.75;4860644;29;20052;-87
2023/09/23 10:29:21;;;;;;;6.25;2.50;;;15.70;99.90;;;15.51;72.47;100410.47;4847879;29;20101;-86
2023/09/23 10:31:54;;;;;;;6.05;2.20;;;15.60;99.90;;;15.52;72.60;100417.47;4847797;29;20057;-87
2023/09/23 10:34:21;;;;;;;6.05;2.20;;;15.70;99.90;;;15.52;72.76;100417.47;4874396;29;20077;-87
2023/09/23 10:36:50;;;;;;;6.50;2.10;;;15.70;99.90;;;15.55;72.59;100417.00;4859405;29;20049;-86
2023/09/23 10:39:19;;;;;;;8.30;2.53;;;15.70;99.90;;;15.66;73.47;100421.47;4861530;29;20086;-86
2023/09/23 10:41:47;;;;;;;6.57;2.08;;;15.80;99.90;;;15.80;72.55;100425.47;4878693;29;20457;-84
2023/09/23 10:44:15;;;;;;;5.03;1.90;;;16.00;99.90;;;15.86;72.82;100429.88;4879950;29;20109;-85
2023/09/23 10:46:46;;;;;;;8.30;1.80;;;16.00;99.90;;;15.82;71.17;100436.81;4864178;29;20131;-86
2023/09/23 10:49:15;;;;;;;9.30;1.67;;;16.00;99.90;;;15.83;70.37;100435.75;4881936;29;20115;-85
2023/09/23 10:51:45;;;;;;;9.40;1.98;;;16.10;99.90;;;15.80;71.55;100435.41;4879592;29;20508;-85
2023/09/23 10:54:16;;;;;;;6.80;1.77;;;16.00;99.90;;;15.78;70.27;100438.34;4879408;29;20081;-85
2023/09/23 10:56:44;;;;;;;8.55;2.00;;;16.00;99.90;;;15.82;70.24;100438.69;4879740;29;20053;-85
2023/09/23 10:59:12;;;;;;;5.93;1.60;;;16.00;99.90;;;15.88;69.54;100437.69;4882420;29;20092;-88
2023/09/23 11:01:39;;;;;;;6.72;2.30;;;16.10;99.90;;;15.93;69.75;100446.66;4850199;29;20128;-85
2023/09/23 11:04:08;;;;;;;5.80;1.70;;;16.20;99.90;;;15.95;69.08;100457.97;4865106;29;20064;-86